sensor_id;sensor_type;location;lat;lon;timestamp;temperature;humidity
26336;DHT22;14047;50.936;4.654;2023-04-25T00:01:46;10.40;99.90
26336;DHT22;14047;50.936;4.654;2023-04-25T00:04:12;10.20;99.90
26336;DHT22;14047;50.936;4.654;2023-04-25T00:06:38;10.20;99.90
26336;DHT22;14047;50.936;4.654;2023-04-25T00:09:06;10.20;99.90
26336;DHT22;14047;50.936;4.654;2023-04-25T00:11:37;10.10;99.90
26336;DHT22;14047;50.936;4.654;2023-04-25T00:14:04;10.20;99.90
26336;DHT22;14047;50.936;4.654;2023-04-25T00:16:30;10.30;99.90
26336;DHT22;14047;50.936;4.654;2023-04-25T00:18:59;10.20;99.90
26336;DHT22;14047;50.936;4.654;2023-04-25T00:21:27;10.20;99.90
26336;DHT22;14047;50.936;4.654;2023-04-25T00:23:54;10.30;99.90
26336;DHT22;14047;50.936;4.654;2023-04-25T00:26:20;10.30;99.90
26336;DHT22;14047;50.936;4.654;2023-04-25T00:28:48;10.40;99.90
26336;DHT22;14047;50.936;4.654;2023-04-25T00:31:15;10.50;99.90
26336;DHT22;14047;50.936;4.654;2023-04-25T00:33:40;10.60;99.90
26336;DHT22;14047;50.936;4.654;2023-04-25T00:36:07;10.60;99.90
26336;DHT22;14047;50.936;4.654;2023-04-25T00:38:33;10.60;99.90
26336;DHT22;14047;50.936;4.654;2023-04-25T00:40:59;10.40;99.90
26336;DHT22;14047;50.936;4.654;2023-04-25T00:43:26;10.40;99.90
26336;DHT22;14047;50.936;4.654;2023-04-25T00:45:52;10.50;99.90
26336;DHT22;14047;50.936;4.654;2023-04-25T00:48:21;10.60;99.90
26336;DHT22;14047;50.936;4.654;2023-04-25T00:50:57;10.70;99.90
26336;DHT22;14047;50.936;4.654;2023-04-25T00:53:24;10.70;99.90
26336;DHT22;14047;50.936;4.654;2023-04-25T00:55:51;10.70;99.90
26336;DHT22;14047;50.936;4.654;2023-04-25T00:58:18;10.60;99.90
26336;DHT22;14047;50.936;4.654;2023-04-25T01:00:48;10.50;99.90
26336;DHT22;14047;50.936;4.654;2023-04-25T01:03:16;10.50;99.90
26336;DHT22;14047;50.936;4.654;2023-04-25T01:05:43;10.50;99.90
26336;DHT22;14047;50.936;4.654;2023-04-25T01:08:09;10.40;99.90
26336;DHT22;14047;50.936;4.654;2023-04-25T01:10:36;10.50;99.90
26336;DHT22;14047;50.936;4.654;2023-04-25T01:13:03;10.40;99.90
26336;DHT22;14047;50.936;4.654;2023-04-25T01:15:29;10.40;99.90
26336;DHT22;14047;50.936;4.654;2023-04-25T01:17:55;10.30;99.90
26336;DHT22;14047;50.936;4.654;2023-04-25T01:20:22;10.10;99.90
26336;DHT22;14047;50.936;4.654;2023-04-25T01:22:50;10.00;99.90
26336;DHT22;14047;50.936;4.654;2023-04-25T01:25:18;10.00;99.90
26336;DHT22;14047;50.936;4.654;2023-04-25T01:27:44;9.90;99.90
26336;DHT22;14047;50.936;4.654;2023-04-25T01:30:11;9.50;99.90
26336;DHT22;14047;50.936;4.654;2023-04-25T01:32:37;9.30;99.90
26336;DHT22;14047;50.936;4.654;2023-04-25T01:35:05;9.00;99.90
26336;DHT22;14047;50.936;4.654;2023-04-25T01:37:39;8.90;99.90
26336;DHT22;14047;50.936;4.654;2023-04-25T01:40:07;9.00;99.90
26336;DHT22;14047;50.936;4.654;2023-04-25T01:42:36;8.80;99.90
26336;DHT22;14047;50.936;4.654;2023-04-25T01:45:02;8.60;99.90
26336;DHT22;14047;50.936;4.654;2023-04-25T01:47:29;8.70;99.90
26336;DHT22;14047;50.936;4.654;2023-04-25T01:49:55;8.80;99.90
26336;DHT22;14047;50.936;4.654;2023-04-25T01:52:22;8.80;99.90
26336;DHT22;14047;50.936;4.654;2023-04-25T01:54:49;9.00;99.90
26336;DHT22;14047;50.936;4.654;2023-04-25T01:57:16;9.10;99.90
26336;DHT22;14047;50.936;4.654;2023-04-25T01:59:43;9.20;99.90
26336;DHT22;14047;50.936;4.654;2023-04-25T02:02:36;9.30;99.90
26336;DHT22;14047;50.936;4.654;2023-04-25T02:05:04;9.10;99.90
26336;DHT22;14047;50.936;4.654;2023-04-25T02:07:32;9.10;99.90
26336;DHT22;14047;50.936;4.654;2023-04-25T02:09:58;8.90;99.90
26336;DHT22;14047;50.936;4.654;2023-04-25T02:12:27;8.80;99.90
26336;DHT22;14047;50.936;4.654;2023-04-25T02:15:12;8.60;99.90
26336;DHT22;14047;50.936;4.654;2023-04-25T02:17:47;8.60;99.90
26336;DHT22;14047;50.936;4.654;2023-04-25T02:20:13;8.70;99.90
26336;DHT22;14047;50.936;4.654;2023-04-25T02:22:39;8.80;99.90
26336;DHT22;14047;50.936;4.654;2023-04-25T02:25:06;8.90;99.90
26336;DHT22;14047;50.936;4.654;2023-04-25T02:27:32;9.10;99.90
26336;DHT22;14047;50.936;4.654;2023-04-25T02:29:58;8.90;99.90
26336;DHT22;14047;50.936;4.654;2023-04-25T02:32:24;9.00;99.90
26336;DHT22;14047;50.936;4.654;2023-04-25T02:34:50;8.80;99.90
26336;DHT22;14047;50.936;4.654;2023-04-25T02:37:16;8.80;99.90
26336;DHT22;14047;50.936;4.654;2023-04-25T02:39:44;8.70;99.90
26336;DHT22;14047;50.936;4.654;2023-04-25T02:42:11;8.90;99.90
26336;DHT22;14047;50.936;4.654;2023-04-25T02:44:37;8.90;99.90
26336;DHT22;14047;50.936;4.654;2023-04-25T02:47:04;9.00;99.90
26336;DHT22;14047;50.936;4.654;2023-04-25T02:49:30;9.00;99.90
26336;DHT22;14047;50.936;4.654;2023-04-25T02:51:56;9.10;99.90
26336;DHT22;14047;50.936;4.654;2023-04-25T02:54:22;9.00;99.90
26336;DHT22;14047;50.936;4.654;2023-04-25T02:56:49;9.00;99.90
26336;DHT22;14047;50.936;4.654;2023-04-25T02:59:20;8.90;99.90
26336;DHT22;14047;50.936;4.654;2023-04-25T03:01:46;8.90;99.90
26336;DHT22;14047;50.936;4.654;2023-04-25T03:04:12;9.10;99.90
26336;DHT22;14047;50.936;4.654;2023-04-25T03:06:38;9.00;99.90
26336;DHT22;14047;50.936;4.654;2023-04-25T03:09:04;8.80;99.90
26336;DHT22;14047;50.936;4.654;2023-04-25T03:11:30;8.50;99.90
26336;DHT22;14047;50.936;4.654;2023-04-25T03:13:56;8.40;99.90
26336;DHT22;14047;50.936;4.654;2023-04-25T03:16:22;8.40;99.90
26336;DHT22;14047;50.936;4.654;2023-04-25T03:18:49;8.50;99.90
26336;DHT22;14047;50.936;4.654;2023-04-25T03:21:17;8.50;99.90
26336;DHT22;14047;50.936;4.654;2023-04-25T03:23:43;8.10;99.90
26336;DHT22;14047;50.936;4.654;2023-04-25T03:26:08;7.90;99.90
26336;DHT22;14047;50.936;4.654;2023-04-25T03:28:35;7.90;99.90
26336;DHT22;14047;50.936;4.654;2023-04-25T03:31:01;8.00;99.90
26336;DHT22;14047;50.936;4.654;2023-04-25T03:33:27;8.10;99.90
26336;DHT22;14047;50.936;4.654;2023-04-25T03:35:53;7.90;99.90
26336;DHT22;14047;50.936;4.654;2023-04-25T03:38:19;7.80;99.90
26336;DHT22;14047;50.936;4.654;2023-04-25T03:40:45;7.60;99.90
26336;DHT22;14047;50.936;4.654;2023-04-25T03:43:33;7.50;99.90
26336;DHT22;14047;50.936;4.654;2023-04-25T03:46:04;7.40;99.90
26336;DHT22;14047;50.936;4.654;2023-04-25T03:48:30;7.30;99.90
26336;DHT22;14047;50.936;4.654;2023-04-25T03:50:56;7.20;99.90
26336;DHT22;14047;50.936;4.654;2023-04-25T03:53:22;6.90;99.90
26336;DHT22;14047;50.936;4.654;2023-04-25T03:56:07;7.00;99.90
26336;DHT22;14047;50.936;4.654;2023-04-25T03:58:35;7.00;99.90
26336;DHT22;14047;50.936;4.654;2023-04-25T04:01:01;7.00;99.90
26336;DHT22;14047;50.936;4.654;2023-04-25T04:03:35;7.00;99.90
26336;DHT22;14047;50.936;4.654;2023-04-25T04:06:04;7.00;99.90
26336;DHT22;14047;50.936;4.654;2023-04-25T04:08:33;7.20;99.90
26336;DHT22;14047;50.936;4.654;2023-04-25T04:10:59;7.30;99.90
26336;DHT22;14047;50.936;4.654;2023-04-25T04:13:27;7.50;99.90
26336;DHT22;14047;50.936;4.654;2023-04-25T04:15:53;7.70;99.90
26336;DHT22;14047;50.936;4.654;2023-04-25T04:18:19;7.80;99.90
26336;DHT22;14047;50.936;4.654;2023-04-25T04:20:45;8.00;99.90
26336;DHT22;14047;50.936;4.654;2023-04-25T04:23:12;8.10;99.90
26336;DHT22;14047;50.936;4.654;2023-04-25T04:25:38;8.20;99.90
26336;DHT22;14047;50.936;4.654;2023-04-25T04:28:20;8.30;99.90
26336;DHT22;14047;50.936;4.654;2023-04-25T04:30:55;8.40;99.90
26336;DHT22;14047;50.936;4.654;2023-04-25T04:33:21;8.40;99.90
26336;DHT22;14047;50.936;4.654;2023-04-25T04:35:54;8.40;99.90
26336;DHT22;14047;50.936;4.654;2023-04-25T04:38:21;8.50;99.90
26336;DHT22;14047;50.936;4.654;2023-04-25T04:40:47;8.60;99.90
26336;DHT22;14047;50.936;4.654;2023-04-25T04:43:36;8.70;99.90
26336;DHT22;14047;50.936;4.654;2023-04-25T04:46:35;8.70;99.90
26336;DHT22;14047;50.936;4.654;2023-04-25T04:49:25;8.80;99.90
26336;DHT22;14047;50.936;4.654;2023-04-25T04:51:59;8.80;99.90
26336;DHT22;14047;50.936;4.654;2023-04-25T04:55:05;8.80;99.90
26336;DHT22;14047;50.936;4.654;2023-04-25T04:57:45;8.70;99.90
26336;DHT22;14047;50.936;4.654;2023-04-25T05:00:11;8.70;99.90
26336;DHT22;14047;50.936;4.654;2023-04-25T05:02:56;8.70;99.90
26336;DHT22;14047;50.936;4.654;2023-04-25T05:05:48;8.60;99.90
26336;DHT22;14047;50.936;4.654;2023-04-25T05:08:37;8.60;99.90
26336;DHT22;14047;50.936;4.654;2023-04-25T05:11:35;8.60;99.90
26336;DHT22;14047;50.936;4.654;2023-04-25T05:14:25;8.50;99.90
26336;DHT22;14047;50.936;4.654;2023-04-25T05:17:13;8.60;99.90
26336;DHT22;14047;50.936;4.654;2023-04-25T05:20:08;8.60;99.90
26336;DHT22;14047;50.936;4.654;2023-04-25T05:22:55;8.60;99.90
26336;DHT22;14047;50.936;4.654;2023-04-25T05:25:40;8.50;99.90
26336;DHT22;14047;50.936;4.654;2023-04-25T05:28:19;8.40;99.90
26336;DHT22;14047;50.936;4.654;2023-04-25T05:30:59;8.40;99.90
26336;DHT22;14047;50.936;4.654;2023-04-25T05:33:46;8.40;99.90
26336;DHT22;14047;50.936;4.654;2023-04-25T05:36:12;8.50;99.90
26336;DHT22;14047;50.936;4.654;2023-04-25T05:38:38;8.60;99.90
26336;DHT22;14047;50.936;4.654;2023-04-25T05:41:18;8.50;99.90
26336;DHT22;14047;50.936;4.654;2023-04-25T05:43:54;8.50;99.90
26336;DHT22;14047;50.936;4.654;2023-04-25T05:46:35;8.60;99.90
26336;DHT22;14047;50.936;4.654;2023-04-25T05:49:12;8.40;99.90
26336;DHT22;14047;50.936;4.654;2023-04-25T05:51:55;8.50;99.90
26336;DHT22;14047;50.936;4.654;2023-04-25T05:54:47;8.60;99.90
26336;DHT22;14047;50.936;4.654;2023-04-25T05:57:24;8.60;99.90
26336;DHT22;14047;50.936;4.654;2023-04-25T05:59:50;8.70;99.90
26336;DHT22;14047;50.936;4.654;2023-04-25T06:02:17;8.80;99.90
26336;DHT22;14047;50.936;4.654;2023-04-25T06:04:43;8.90;99.90
26336;DHT22;14047;50.936;4.654;2023-04-25T06:07:10;9.00;99.90
26336;DHT22;14047;50.936;4.654;2023-04-25T06:09:36;9.20;99.90
26336;DHT22;14047;50.936;4.654;2023-04-25T06:12:05;9.30;99.90
26336;DHT22;14047;50.936;4.654;2023-04-25T06:14:31;9.40;99.90
26336;DHT22;14047;50.936;4.654;2023-04-25T06:16:57;9.60;99.90
26336;DHT22;14047;50.936;4.654;2023-04-25T06:19:23;9.60;99.90
26336;DHT22;14047;50.936;4.654;2023-04-25T06:21:49;9.80;99.90
26336;DHT22;14047;50.936;4.654;2023-04-25T06:24:16;9.90;99.90
26336;DHT22;14047;50.936;4.654;2023-04-25T06:26:42;9.80;99.90
26336;DHT22;14047;50.936;4.654;2023-04-25T06:29:08;9.40;99.90
26336;DHT22;14047;50.936;4.654;2023-04-25T06:31:34;9.20;99.90
26336;DHT22;14047;50.936;4.654;2023-04-25T06:34:01;9.10;99.90
26336;DHT22;14047;50.936;4.654;2023-04-25T06:36:30;9.10;99.90
26336;DHT22;14047;50.936;4.654;2023-04-25T06:39:02;9.00;99.90
26336;DHT22;14047;50.936;4.654;2023-04-25T06:41:28;9.00;99.90
26336;DHT22;14047;50.936;4.654;2023-04-25T06:43:59;8.80;99.90
26336;DHT22;14047;50.936;4.654;2023-04-25T06:46:31;8.60;99.90
26336;DHT22;14047;50.936;4.654;2023-04-25T06:48:58;8.60;99.90
26336;DHT22;14047;50.936;4.654;2023-04-25T06:51:24;8.80;99.90
26336;DHT22;14047;50.936;4.654;2023-04-25T06:53:54;9.10;99.90
26336;DHT22;14047;50.936;4.654;2023-04-25T06:56:29;9.10;99.90
26336;DHT22;14047;50.936;4.654;2023-04-25T06:59:02;8.90;99.90
26336;DHT22;14047;50.936;4.654;2023-04-25T07:01:37;8.90;99.90
26336;DHT22;14047;50.936;4.654;2023-04-25T07:04:08;8.60;99.90
26336;DHT22;14047;50.936;4.654;2023-04-25T07:06:37;8.50;99.90
26336;DHT22;14047;50.936;4.654;2023-04-25T07:09:09;8.50;99.90
26336;DHT22;14047;50.936;4.654;2023-04-25T07:11:38;8.80;99.90
26336;DHT22;14047;50.936;4.654;2023-04-25T07:14:04;9.10;99.90
26336;DHT22;14047;50.936;4.654;2023-04-25T07:16:30;9.20;99.90
26336;DHT22;14047;50.936;4.654;2023-04-25T07:18:57;9.50;99.90
26336;DHT22;14047;50.936;4.654;2023-04-25T07:21:23;9.70;99.90
26336;DHT22;14047;50.936;4.654;2023-04-25T07:23:51;9.90;99.90
26336;DHT22;14047;50.936;4.654;2023-04-25T07:26:21;10.00;99.90
26336;DHT22;14047;50.936;4.654;2023-04-25T07:29:15;10.30;99.90
26336;DHT22;14047;50.936;4.654;2023-04-25T07:31:41;10.40;99.90
26336;DHT22;14047;50.936;4.654;2023-04-25T07:34:07;10.50;99.90
26336;DHT22;14047;50.936;4.654;2023-04-25T07:36:33;10.50;99.90
26336;DHT22;14047;50.936;4.654;2023-04-25T07:38:59;10.30;99.90
26336;DHT22;14047;50.936;4.654;2023-04-25T07:41:25;10.10;99.90
26336;DHT22;14047;50.936;4.654;2023-04-25T07:43:51;10.10;99.90
26336;DHT22;14047;50.936;4.654;2023-04-25T07:46:19;10.20;99.90
26336;DHT22;14047;50.936;4.654;2023-04-25T07:48:45;10.10;99.90
26336;DHT22;14047;50.936;4.654;2023-04-25T07:51:11;10.20;99.90
26336;DHT22;14047;50.936;4.654;2023-04-25T07:53:37;9.80;99.90
26336;DHT22;14047;50.936;4.654;2023-04-25T07:56:07;9.40;99.90
26336;DHT22;14047;50.936;4.654;2023-04-25T07:58:37;9.30;99.90
26336;DHT22;14047;50.936;4.654;2023-04-25T08:01:06;9.30;99.90
26336;DHT22;14047;50.936;4.654;2023-04-25T08:03:35;9.40;99.90
26336;DHT22;14047;50.936;4.654;2023-04-25T08:06:04;9.40;99.90
26336;DHT22;14047;50.936;4.654;2023-04-25T08:08:34;9.20;99.90
26336;DHT22;14047;50.936;4.654;2023-04-25T08:11:00;9.00;99.90
26336;DHT22;14047;50.936;4.654;2023-04-25T08:13:27;8.90;99.90
26336;DHT22;14047;50.936;4.654;2023-04-25T08:15:53;8.90;99.90
26336;DHT22;14047;50.936;4.654;2023-04-25T08:18:19;8.70;99.90
26336;DHT22;14047;50.936;4.654;2023-04-25T08:20:47;8.60;99.90
26336;DHT22;14047;50.936;4.654;2023-04-25T08:23:14;8.70;99.90
26336;DHT22;14047;50.936;4.654;2023-04-25T08:25:52;8.80;99.90
26336;DHT22;14047;50.936;4.654;2023-04-25T08:28:22;9.00;99.90
26336;DHT22;14047;50.936;4.654;2023-04-25T08:30:48;9.10;99.90
26336;DHT22;14047;50.936;4.654;2023-04-25T08:33:15;9.40;99.90
26336;DHT22;14047;50.936;4.654;2023-04-25T08:36:16;9.60;99.90
26336;DHT22;14047;50.936;4.654;2023-04-25T08:38:43;9.90;99.90
26336;DHT22;14047;50.936;4.654;2023-04-25T08:41:11;10.10;99.90
26336;DHT22;14047;50.936;4.654;2023-04-25T08:43:38;10.50;99.90
26336;DHT22;14047;50.936;4.654;2023-04-25T08:46:08;10.70;99.90
26336;DHT22;14047;50.936;4.654;2023-04-25T08:48:42;10.90;99.90
26336;DHT22;14047;50.936;4.654;2023-04-25T08:51:10;11.10;99.90
26336;DHT22;14047;50.936;4.654;2023-04-25T08:53:41;11.00;99.90
26336;DHT22;14047;50.936;4.654;2023-04-25T08:56:10;11.00;99.90
26336;DHT22;14047;50.936;4.654;2023-04-25T08:58:39;11.00;99.90
26336;DHT22;14047;50.936;4.654;2023-04-25T09:01:05;10.90;99.90
26336;DHT22;14047;50.936;4.654;2023-04-25T09:03:39;11.20;99.90
26336;DHT22;14047;50.936;4.654;2023-04-25T09:06:06;11.30;99.90
26336;DHT22;14047;50.936;4.654;2023-04-25T09:08:33;11.50;99.90
26336;DHT22;14047;50.936;4.654;2023-04-25T09:10:59;11.60;99.90
26336;DHT22;14047;50.936;4.654;2023-04-25T09:13:27;11.50;99.90
26336;DHT22;14047;50.936;4.654;2023-04-25T09:16:11;11.50;99.90
26336;DHT22;14047;50.936;4.654;2023-04-25T09:18:56;11.20;99.90
26336;DHT22;14047;50.936;4.654;2023-04-25T09:21:22;10.60;99.90
26336;DHT22;14047;50.936;4.654;2023-04-25T09:23:49;10.50;99.90
26336;DHT22;14047;50.936;4.654;2023-04-25T09:26:20;10.40;99.90
26336;DHT22;14047;50.936;4.654;2023-04-25T09:28:47;10.00;99.90
26336;DHT22;14047;50.936;4.654;2023-04-25T09:31:24;9.70;99.90
26336;DHT22;14047;50.936;4.654;2023-04-25T09:33:59;9.80;99.90
26336;DHT22;14047;50.936;4.654;2023-04-25T09:36:27;10.10;99.90
26336;DHT22;14047;50.936;4.654;2023-04-25T09:39:13;10.20;99.90
26336;DHT22;14047;50.936;4.654;2023-04-25T09:41:42;10.10;99.90
26336;DHT22;14047;50.936;4.654;2023-04-25T09:44:08;9.70;99.90
26336;DHT22;14047;50.936;4.654;2023-04-25T09:46:39;9.60;99.90
26336;DHT22;14047;50.936;4.654;2023-04-25T09:49:20;9.50;99.90
26336;DHT22;14047;50.936;4.654;2023-04-25T09:52:07;9.50;99.90
26336;DHT22;14047;50.936;4.654;2023-04-25T09:54:42;9.50;99.90
26336;DHT22;14047;50.936;4.654;2023-04-25T09:57:18;9.50;99.90
26336;DHT22;14047;50.936;4.654;2023-04-25T09:59:46;9.80;99.90
26336;DHT22;14047;50.936;4.654;2023-04-25T10:02:14;10.00;99.90
26336;DHT22;14047;50.936;4.654;2023-04-25T10:04:41;10.20;99.90
26336;DHT22;14047;50.936;4.654;2023-04-25T10:07:36;10.40;99.90
26336;DHT22;14047;50.936;4.654;2023-04-25T10:10:07;10.60;99.90
26336;DHT22;14047;50.936;4.654;2023-04-25T10:12:34;10.50;99.90
26336;DHT22;14047;50.936;4.654;2023-04-25T10:15:00;10.40;99.90
26336;DHT22;14047;50.936;4.654;2023-04-25T10:17:27;10.30;99.90
26336;DHT22;14047;50.936;4.654;2023-04-25T10:19:54;10.40;99.90
26336;DHT22;14047;50.936;4.654;2023-04-25T10:22:31;10.60;99.90
26336;DHT22;14047;50.936;4.654;2023-04-25T10:24:58;10.40;99.90
26336;DHT22;14047;50.936;4.654;2023-04-25T10:27:27;10.30;99.90
26336;DHT22;14047;50.936;4.654;2023-04-25T10:30:02;10.30;99.90
26336;DHT22;14047;50.936;4.654;2023-04-25T10:32:33;10.40;99.90
26336;DHT22;14047;50.936;4.654;2023-04-25T10:35:17;10.20;99.90
26336;DHT22;14047;50.936;4.654;2023-04-25T10:40:31;10.80;99.90
26336;DHT22;14047;50.936;4.654;2023-04-25T10:43:33;11.10;99.90
26336;DHT22;14047;50.936;4.654;2023-04-25T10:45:59;11.30;99.90
26336;DHT22;14047;50.936;4.654;2023-04-25T10:48:30;11.30;99.90
26336;DHT22;14047;50.936;4.654;2023-04-25T10:51:16;11.70;99.90
26336;DHT22;14047;50.936;4.654;2023-04-25T10:56:28;12.30;99.90
26336;DHT22;14047;50.936;4.654;2023-04-25T11:01:47;11.70;99.90
26336;DHT22;14047;50.936;4.654;2023-04-25T11:04:28;11.50;99.90
26336;DHT22;14047;50.936;4.654;2023-04-25T11:07:00;11.00;99.90
26336;DHT22;14047;50.936;4.654;2023-04-25T11:09:28;10.80;99.90
26336;DHT22;14047;50.936;4.654;2023-04-25T11:11:58;10.60;99.90
26336;DHT22;14047;50.936;4.654;2023-04-25T11:14:26;10.80;99.90
26336;DHT22;14047;50.936;4.654;2023-04-25T11:17:01;10.80;99.90
26336;DHT22;14047;50.936;4.654;2023-04-25T11:19:28;10.90;99.90
26336;DHT22;14047;50.936;4.654;2023-04-25T11:21:59;10.90;99.90
26336;DHT22;14047;50.936;4.654;2023-04-25T11:24:29;11.10;99.90
26336;DHT22;14047;50.936;4.654;2023-04-25T11:26:55;11.20;99.90
26336;DHT22;14047;50.936;4.654;2023-04-25T11:29:23;11.50;99.90
26336;DHT22;14047;50.936;4.654;2023-04-25T11:31:49;11.60;99.90
26336;DHT22;14047;50.936;4.654;2023-04-25T11:34:19;12.00;99.90
26336;DHT22;14047;50.936;4.654;2023-04-25T11:36:46;12.00;99.90
26336;DHT22;14047;50.936;4.654;2023-04-25T11:39:12;11.90;99.90
26336;DHT22;14047;50.936;4.654;2023-04-25T11:41:38;11.80;99.90
26336;DHT22;14047;50.936;4.654;2023-04-25T11:44:05;11.70;99.90
26336;DHT22;14047;50.936;4.654;2023-04-25T11:46:33;11.70;99.90
26336;DHT22;14047;50.936;4.654;2023-04-25T11:49:00;11.60;99.90
26336;DHT22;14047;50.936;4.654;2023-04-25T11:51:27;11.30;99.90
26336;DHT22;14047;50.936;4.654;2023-04-25T11:53:53;11.30;99.90
26336;DHT22;14047;50.936;4.654;2023-04-25T11:56:20;11.30;99.90
26336;DHT22;14047;50.936;4.654;2023-04-25T11:59:02;11.00;99.90
26336;DHT22;14047;50.936;4.654;2023-04-25T12:01:39;11.10;99.90
26336;DHT22;14047;50.936;4.654;2023-04-25T12:04:20;11.40;99.90
26336;DHT22;14047;50.936;4.654;2023-04-25T12:06:47;11.80;99.90
26336;DHT22;14047;50.936;4.654;2023-04-25T12:09:17;12.00;99.90
26336;DHT22;14047;50.936;4.654;2023-04-25T12:11:53;11.90;99.90
26336;DHT22;14047;50.936;4.654;2023-04-25T12:14:26;11.80;99.90
26336;DHT22;14047;50.936;4.654;2023-04-25T12:16:54;11.60;99.90
26336;DHT22;14047;50.936;4.654;2023-04-25T12:19:21;11.90;99.90
26336;DHT22;14047;50.936;4.654;2023-04-25T12:21:48;12.10;99.90
26336;DHT22;14047;50.936;4.654;2023-04-25T12:24:22;12.20;99.90
26336;DHT22;14047;50.936;4.654;2023-04-25T12:26:53;12.10;99.90
26336;DHT22;14047;50.936;4.654;2023-04-25T12:29:26;11.70;99.90
26336;DHT22;14047;50.936;4.654;2023-04-25T12:31:53;11.80;99.90
26336;DHT22;14047;50.936;4.654;2023-04-25T12:34:20;12.00;99.90
26336;DHT22;14047;50.936;4.654;2023-04-25T12:36:47;12.00;99.90
26336;DHT22;14047;50.936;4.654;2023-04-25T12:39:17;11.90;99.90
26336;DHT22;14047;50.936;4.654;2023-04-25T12:41:46;12.10;99.90
26336;DHT22;14047;50.936;4.654;2023-04-25T12:44:13;12.20;99.90
26336;DHT22;14047;50.936;4.654;2023-04-25T12:46:40;12.40;99.90
26336;DHT22;14047;50.936;4.654;2023-04-25T12:49:07;12.70;99.90
26336;DHT22;14047;50.936;4.654;2023-04-25T12:51:37;13.00;99.90
26336;DHT22;14047;50.936;4.654;2023-04-25T12:54:04;13.20;99.90
26336;DHT22;14047;50.936;4.654;2023-04-25T12:56:31;13.10;99.90
26336;DHT22;14047;50.936;4.654;2023-04-25T12:58:57;13.20;99.90
26336;DHT22;14047;50.936;4.654;2023-04-25T13:01:24;13.20;99.90
26336;DHT22;14047;50.936;4.654;2023-04-25T13:03:50;12.70;99.90
26336;DHT22;14047;50.936;4.654;2023-04-25T13:06:18;11.90;99.90
26336;DHT22;14047;50.936;4.654;2023-04-25T13:08:44;12.00;99.90
26336;DHT22;14047;50.936;4.654;2023-04-25T13:11:10;11.80;99.90
26336;DHT22;14047;50.936;4.654;2023-04-25T13:13:37;11.70;99.90
26336;DHT22;14047;50.936;4.654;2023-04-25T13:16:04;11.60;99.90
26336;DHT22;14047;50.936;4.654;2023-04-25T13:18:31;11.50;99.90
26336;DHT22;14047;50.936;4.654;2023-04-25T13:20:58;11.50;99.90
26336;DHT22;14047;50.936;4.654;2023-04-25T13:23:26;11.70;99.90
26336;DHT22;14047;50.936;4.654;2023-04-25T13:25:53;11.50;99.90
26336;DHT22;14047;50.936;4.654;2023-04-25T13:28:19;11.60;99.90
26336;DHT22;14047;50.936;4.654;2023-04-25T13:30:45;11.70;99.90
26336;DHT22;14047;50.936;4.654;2023-04-25T13:33:12;11.80;99.90
26336;DHT22;14047;50.936;4.654;2023-04-25T13:35:38;12.10;99.90
26336;DHT22;14047;50.936;4.654;2023-04-25T13:38:04;12.20;99.90
26336;DHT22;14047;50.936;4.654;2023-04-25T13:40:30;12.00;99.90
26336;DHT22;14047;50.936;4.654;2023-04-25T13:42:57;12.40;99.90
26336;DHT22;14047;50.936;4.654;2023-04-25T13:45:24;12.80;99.90
26336;DHT22;14047;50.936;4.654;2023-04-25T13:47:50;13.10;99.90
26336;DHT22;14047;50.936;4.654;2023-04-25T13:50:17;13.10;99.90
26336;DHT22;14047;50.936;4.654;2023-04-25T13:52:42;13.00;99.90
26336;DHT22;14047;50.936;4.654;2023-04-25T13:55:09;13.00;99.90
26336;DHT22;14047;50.936;4.654;2023-04-25T13:57:35;13.10;99.90
26336;DHT22;14047;50.936;4.654;2023-04-25T14:00:04;13.00;99.90
26336;DHT22;14047;50.936;4.654;2023-04-25T14:02:35;12.90;99.90
26336;DHT22;14047;50.936;4.654;2023-04-25T14:05:02;13.10;99.90
26336;DHT22;14047;50.936;4.654;2023-04-25T14:07:29;13.30;99.90
26336;DHT22;14047;50.936;4.654;2023-04-25T14:09:56;13.40;99.90
26336;DHT22;14047;50.936;4.654;2023-04-25T14:12:23;13.30;99.90
26336;DHT22;14047;50.936;4.654;2023-04-25T14:14:49;13.50;99.90
26336;DHT22;14047;50.936;4.654;2023-04-25T14:17:15;13.30;99.90
26336;DHT22;14047;50.936;4.654;2023-04-25T14:19:41;13.20;99.90
26336;DHT22;14047;50.936;4.654;2023-04-25T14:22:11;13.30;99.90
26336;DHT22;14047;50.936;4.654;2023-04-25T14:24:37;13.80;99.90
26336;DHT22;14047;50.936;4.654;2023-04-25T14:27:04;13.70;99.90
26336;DHT22;14047;50.936;4.654;2023-04-25T14:29:30;13.30;99.90
26336;DHT22;14047;50.936;4.654;2023-04-25T14:31:55;12.90;99.90
26336;DHT22;14047;50.936;4.654;2023-04-25T14:34:23;12.30;99.90
26336;DHT22;14047;50.936;4.654;2023-04-25T14:36:49;12.40;99.90
26336;DHT22;14047;50.936;4.654;2023-04-25T14:39:15;12.70;99.90
26336;DHT22;14047;50.936;4.654;2023-04-25T14:41:42;12.90;99.90
26336;DHT22;14047;50.936;4.654;2023-04-25T14:44:08;12.60;99.90
26336;DHT22;14047;50.936;4.654;2023-04-25T14:46:34;13.00;99.90
26336;DHT22;14047;50.936;4.654;2023-04-25T14:49:00;13.40;99.90
26336;DHT22;14047;50.936;4.654;2023-04-25T14:51:26;13.70;99.90
26336;DHT22;14047;50.936;4.654;2023-04-25T14:53:53;13.40;99.90
26336;DHT22;14047;50.936;4.654;2023-04-25T14:56:19;12.90;99.90
26336;DHT22;14047;50.936;4.654;2023-04-25T14:58:45;12.90;99.90
26336;DHT22;14047;50.936;4.654;2023-04-25T15:01:14;12.50;99.90
26336;DHT22;14047;50.936;4.654;2023-04-25T15:03:40;11.90;99.90
26336;DHT22;14047;50.936;4.654;2023-04-25T15:06:06;11.90;99.90
26336;DHT22;14047;50.936;4.654;2023-04-25T15:08:32;11.70;99.90
26336;DHT22;14047;50.936;4.654;2023-04-25T15:10:58;12.00;99.90
26336;DHT22;14047;50.936;4.654;2023-04-25T15:13:25;12.10;99.90
26336;DHT22;14047;50.936;4.654;2023-04-25T15:15:51;12.20;99.90
26336;DHT22;14047;50.936;4.654;2023-04-25T15:18:22;12.20;99.90
26336;DHT22;14047;50.936;4.654;2023-04-25T15:20:52;12.30;99.90
26336;DHT22;14047;50.936;4.654;2023-04-25T15:23:19;12.00;99.90
26336;DHT22;14047;50.936;4.654;2023-04-25T15:25:46;11.90;99.90
26336;DHT22;14047;50.936;4.654;2023-04-25T15:28:12;12.10;99.90
26336;DHT22;14047;50.936;4.654;2023-04-25T15:30:44;12.20;99.90
26336;DHT22;14047;50.936;4.654;2023-04-25T15:33:10;12.10;99.90
26336;DHT22;14047;50.936;4.654;2023-04-25T15:35:36;12.30;99.90
26336;DHT22;14047;50.936;4.654;2023-04-25T15:38:03;12.20;99.90
26336;DHT22;14047;50.936;4.654;2023-04-25T15:40:28;11.90;99.90
26336;DHT22;14047;50.936;4.654;2023-04-25T15:42:54;12.00;99.90
26336;DHT22;14047;50.936;4.654;2023-04-25T15:45:22;12.10;99.90
26336;DHT22;14047;50.936;4.654;2023-04-25T15:47:51;12.30;99.90
26336;DHT22;14047;50.936;4.654;2023-04-25T15:50:20;12.40;99.90
26336;DHT22;14047;50.936;4.654;2023-04-25T15:52:48;12.10;99.90
26336;DHT22;14047;50.936;4.654;2023-04-25T15:55:15;11.90;99.90
26336;DHT22;14047;50.936;4.654;2023-04-25T15:57:42;11.90;99.90
26336;DHT22;14047;50.936;4.654;2023-04-25T16:00:09;12.00;99.90
26336;DHT22;14047;50.936;4.654;2023-04-25T16:02:39;11.80;99.90